sensor_id;sensor_type;location;lat;lon;timestamp;P1;durP1;ratioP1;P2;durP2;ratioP2
58338;SDS011;68636;52.704;6.536;2023-08-17T00:02:24;10.17;;;3.33;;
58338;SDS011;68636;52.704;6.536;2023-08-17T00:04:49;9.27;;;3.42;;
58338;SDS011;68636;52.704;6.536;2023-08-17T00:07:16;10.07;;;3.33;;
58338;SDS011;68636;52.704;6.536;2023-08-17T00:09:41;11.45;;;3.10;;
58338;SDS011;68636;52.704;6.536;2023-08-17T00:12:08;14.93;;;3.10;;
58338;SDS011;68636;52.704;6.536;2023-08-17T00:14:33;10.73;;;3.00;;
58338;SDS011;68636;52.704;6.536;2023-08-17T00:16:59;11.73;;;3.25;;
58338;SDS011;68636;52.704;6.536;2023-08-17T00:19:25;8.98;;;2.50;;
58338;SDS011;68636;52.704;6.536;2023-08-17T00:21:51;11.05;;;2.92;;
58338;SDS011;68636;52.704;6.536;2023-08-17T00:24:17;9.98;;;3.38;;
58338;SDS011;68636;52.704;6.536;2023-08-17T00:26:43;12.97;;;3.60;;
58338;SDS011;68636;52.704;6.536;2023-08-17T00:29:09;17.30;;;3.10;;
58338;SDS011;68636;52.704;6.536;2023-08-17T00:31:34;9.30;;;2.97;;
58338;SDS011;68636;52.704;6.536;2023-08-17T00:34:00;12.95;;;3.25;;
58338;SDS011;68636;52.704;6.536;2023-08-17T00:36:26;10.05;;;3.17;;
58338;SDS011;68636;52.704;6.536;2023-08-17T00:38:51;11.60;;;3.13;;
58338;SDS011;68636;52.704;6.536;2023-08-17T00:41:17;9.30;;;2.87;;
58338;SDS011;68636;52.704;6.536;2023-08-17T00:43:43;9.27;;;3.38;;
58338;SDS011;68636;52.704;6.536;2023-08-17T00:46:08;7.82;;;2.88;;
58338;SDS011;68636;52.704;6.536;2023-08-17T00:48:35;11.10;;;2.97;;
58338;SDS011;68636;52.704;6.536;2023-08-17T00:51:01;11.27;;;2.93;;
58338;SDS011;68636;52.704;6.536;2023-08-17T00:53:28;16.33;;;3.00;;
58338;SDS011;68636;52.704;6.536;2023-08-17T00:55:56;13.00;;;2.95;;
58338;SDS011;68636;52.704;6.536;2023-08-17T00:58:22;13.68;;;2.88;;
58338;SDS011;68636;52.704;6.536;2023-08-17T01:00:48;10.35;;;2.83;;
58338;SDS011;68636;52.704;6.536;2023-08-17T01:03:14;11.45;;;3.13;;
58338;SDS011;68636;52.704;6.536;2023-08-17T01:05:41;9.35;;;2.80;;
58338;SDS011;68636;52.704;6.536;2023-08-17T01:08:07;13.90;;;2.95;;
58338;SDS011;68636;52.704;6.536;2023-08-17T01:10:37;9.30;;;2.80;;
58338;SDS011;68636;52.704;6.536;2023-08-17T01:13:25;9.35;;;3.00;;
58338;SDS011;68636;52.704;6.536;2023-08-17T01:16:00;11.40;;;3.00;;
58338;SDS011;68636;52.704;6.536;2023-08-17T01:18:32;10.57;;;3.05;;
58338;SDS011;68636;52.704;6.536;2023-08-17T01:21:00;11.13;;;2.75;;
58338;SDS011;68636;52.704;6.536;2023-08-17T01:23:30;7.80;;;3.38;;
58338;SDS011;68636;52.704;6.536;2023-08-17T01:25:56;9.82;;;3.00;;
58338;SDS011;68636;52.704;6.536;2023-08-17T01:28:22;10.93;;;3.10;;
58338;SDS011;68636;52.704;6.536;2023-08-17T01:33:38;12.88;;;3.00;;
58338;SDS011;68636;52.704;6.536;2023-08-17T01:36:25;9.82;;;3.00;;
58338;SDS011;68636;52.704;6.536;2023-08-17T01:38:56;6.47;;;2.58;;
58338;SDS011;68636;52.704;6.536;2023-08-17T01:41:23;13.23;;;3.20;;
58338;SDS011;68636;52.704;6.536;2023-08-17T01:43:50;10.98;;;2.75;;
58338;SDS011;68636;52.704;6.536;2023-08-17T01:46:17;8.20;;;3.00;;
58338;SDS011;68636;52.704;6.536;2023-08-17T01:48:43;5.40;;;2.30;;
58338;SDS011;68636;52.704;6.536;2023-08-17T01:51:10;10.48;;;2.55;;
58338;SDS011;68636;52.704;6.536;2023-08-17T01:56:02;9.57;;;3.23;;
58338;SDS011;68636;52.704;6.536;2023-08-17T01:58:28;11.20;;;3.75;;
58338;SDS011;68636;52.704;6.536;2023-08-17T02:00:54;11.18;;;3.03;;
58338;SDS011;68636;52.704;6.536;2023-08-17T02:03:20;12.80;;;3.65;;
58338;SDS011;68636;52.704;6.536;2023-08-17T02:05:46;6.75;;;2.05;;
58338;SDS011;68636;52.704;6.536;2023-08-17T02:08:12;8.45;;;2.85;;
58338;SDS011;68636;52.704;6.536;2023-08-17T02:10:38;8.40;;;2.30;;
58338;SDS011;68636;52.704;6.536;2023-08-17T02:13:03;8.07;;;2.13;;
58338;SDS011;68636;52.704;6.536;2023-08-17T02:15:29;11.32;;;2.40;;
58338;SDS011;68636;52.704;6.536;2023-08-17T02:18:01;11.35;;;2.65;;
58338;SDS011;68636;52.704;6.536;2023-08-17T02:20:27;11.23;;;2.60;;
58338;SDS011;68636;52.704;6.536;2023-08-17T02:22:53;7.13;;;2.70;;
58338;SDS011;68636;52.704;6.536;2023-08-17T02:25:18;9.48;;;2.40;;
58338;SDS011;68636;52.704;6.536;2023-08-17T02:27:44;9.27;;;2.50;;
58338;SDS011;68636;52.704;6.536;2023-08-17T02:30:10;10.55;;;2.50;;
58338;SDS011;68636;52.704;6.536;2023-08-17T02:32:36;11.32;;;2.70;;
58338;SDS011;68636;52.704;6.536;2023-08-17T02:35:02;9.90;;;2.45;;
58338;SDS011;68636;52.704;6.536;2023-08-17T02:37:27;8.27;;;2.40;;
58338;SDS011;68636;52.704;6.536;2023-08-17T02:39:53;9.50;;;2.30;;
58338;SDS011;68636;52.704;6.536;2023-08-17T02:42:19;8.20;;;2.15;;
58338;SDS011;68636;52.704;6.536;2023-08-17T02:44:45;14.32;;;2.50;;
58338;SDS011;68636;52.704;6.536;2023-08-17T02:47:10;8.82;;;2.53;;
58338;SDS011;68636;52.704;6.536;2023-08-17T02:49:36;8.98;;;2.72;;
58338;SDS011;68636;52.704;6.536;2023-08-17T02:52:02;9.88;;;2.50;;
58338;SDS011;68636;52.704;6.536;2023-08-17T02:54:27;13.02;;;2.72;;
58338;SDS011;68636;52.704;6.536;2023-08-17T02:56:53;9.95;;;2.75;;
58338;SDS011;68636;52.704;6.536;2023-08-17T02:59:19;8.43;;;2.90;;
58338;SDS011;68636;52.704;6.536;2023-08-17T03:01:45;11.38;;;2.80;;
58338;SDS011;68636;52.704;6.536;2023-08-17T03:04:11;10.03;;;2.77;;
58338;SDS011;68636;52.704;6.536;2023-08-17T03:06:36;11.57;;;2.83;;
58338;SDS011;68636;52.704;6.536;2023-08-17T03:09:02;7.88;;;2.70;;
58338;SDS011;68636;52.704;6.536;2023-08-17T03:11:28;10.30;;;2.83;;
58338;SDS011;68636;52.704;6.536;2023-08-17T03:13:53;11.63;;;3.13;;
58338;SDS011;68636;52.704;6.536;2023-08-17T03:16:25;10.02;;;3.17;;
58338;SDS011;68636;52.704;6.536;2023-08-17T03:18:52;13.88;;;3.47;;
58338;SDS011;68636;52.704;6.536;2023-08-17T03:21:17;8.88;;;3.67;;
58338;SDS011;68636;52.704;6.536;2023-08-17T03:23:44;9.50;;;2.72;;
58338;SDS011;68636;52.704;6.536;2023-08-17T03:26:10;15.75;;;3.70;;
58338;SDS011;68636;52.704;6.536;2023-08-17T03:28:36;15.18;;;3.28;;
58338;SDS011;68636;52.704;6.536;2023-08-17T03:31:02;10.25;;;3.30;;
58338;SDS011;68636;52.704;6.536;2023-08-17T03:33:28;7.00;;;2.60;;
58338;SDS011;68636;52.704;6.536;2023-08-17T03:35:54;12.55;;;3.22;;
58338;SDS011;68636;52.704;6.536;2023-08-17T03:38:20;12.13;;;3.00;;
58338;SDS011;68636;52.704;6.536;2023-08-17T03:40:46;8.98;;;3.20;;
58338;SDS011;68636;52.704;6.536;2023-08-17T03:43:12;16.52;;;3.60;;
58338;SDS011;68636;52.704;6.536;2023-08-17T03:45:40;11.07;;;3.90;;
58338;SDS011;68636;52.704;6.536;2023-08-17T03:48:07;13.25;;;4.07;;
58338;SDS011;68636;52.704;6.536;2023-08-17T03:50:33;13.48;;;4.05;;
58338;SDS011;68636;52.704;6.536;2023-08-17T03:53:00;8.68;;;3.33;;
58338;SDS011;68636;52.704;6.536;2023-08-17T03:55:26;8.60;;;3.42;;
58338;SDS011;68636;52.704;6.536;2023-08-17T03:57:52;11.63;;;3.90;;
58338;SDS011;68636;52.704;6.536;2023-08-17T04:00:17;10.80;;;4.07;;
58338;SDS011;68636;52.704;6.536;2023-08-17T04:02:43;12.25;;;4.07;;
58338;SDS011;68636;52.704;6.536;2023-08-17T04:05:09;14.23;;;3.92;;
58338;SDS011;68636;52.704;6.536;2023-08-17T04:07:35;16.55;;;4.50;;
58338;SDS011;68636;52.704;6.536;2023-08-17T04:10:02;14.27;;;4.80;;
58338;SDS011;68636;52.704;6.536;2023-08-17T04:12:28;10.60;;;3.85;;
58338;SDS011;68636;52.704;6.536;2023-08-17T04:14:54;15.48;;;4.40;;
58338;SDS011;68636;52.704;6.536;2023-08-17T04:17:20;11.40;;;4.25;;
58338;SDS011;68636;52.704;6.536;2023-08-17T04:19:46;14.90;;;4.55;;
58338;SDS011;68636;52.704;6.536;2023-08-17T04:22:12;14.32;;;4.05;;
58338;SDS011;68636;52.704;6.536;2023-08-17T04:24:38;14.32;;;4.57;;
58338;SDS011;68636;52.704;6.536;2023-08-17T04:27:04;17.00;;;4.28;;
58338;SDS011;68636;52.704;6.536;2023-08-17T04:29:30;13.90;;;3.90;;
58338;SDS011;68636;52.704;6.536;2023-08-17T04:31:57;11.15;;;3.72;;
58338;SDS011;68636;52.704;6.536;2023-08-17T04:34:23;11.38;;;4.53;;
58338;SDS011;68636;52.704;6.536;2023-08-17T04:36:49;14.30;;;4.30;;
58338;SDS011;68636;52.704;6.536;2023-08-17T04:39:15;14.35;;;4.80;;
58338;SDS011;68636;52.704;6.536;2023-08-17T04:41:41;14.45;;;3.78;;
58338;SDS011;68636;52.704;6.536;2023-08-17T04:44:06;15.68;;;4.13;;
58338;SDS011;68636;52.704;6.536;2023-08-17T04:46:32;14.10;;;4.40;;
58338;SDS011;68636;52.704;6.536;2023-08-17T04:48:58;13.38;;;4.25;;
58338;SDS011;68636;52.704;6.536;2023-08-17T04:51:23;14.73;;;4.47;;
58338;SDS011;68636;52.704;6.536;2023-08-17T04:53:49;17.23;;;4.18;;
58338;SDS011;68636;52.704;6.536;2023-08-17T04:56:15;12.77;;;4.22;;
58338;SDS011;68636;52.704;6.536;2023-08-17T04:58:40;18.55;;;4.07;;
58338;SDS011;68636;52.704;6.536;2023-08-17T05:01:06;13.77;;;4.47;;
58338;SDS011;68636;52.704;6.536;2023-08-17T05:03:32;15.85;;;5.75;;
58338;SDS011;68636;52.704;6.536;2023-08-17T05:05:58;13.20;;;4.15;;
58338;SDS011;68636;52.704;6.536;2023-08-17T05:08:24;17.67;;;4.63;;
58338;SDS011;68636;52.704;6.536;2023-08-17T05:10:50;15.63;;;4.20;;
58338;SDS011;68636;52.704;6.536;2023-08-17T05:13:15;12.95;;;4.28;;
58338;SDS011;68636;52.704;6.536;2023-08-17T05:15:41;14.90;;;4.30;;
58338;SDS011;68636;52.704;6.536;2023-08-17T05:18:07;12.45;;;4.07;;
58338;SDS011;68636;52.704;6.536;2023-08-17T05:20:33;13.27;;;4.28;;
58338;SDS011;68636;52.704;6.536;2023-08-17T05:22:59;12.13;;;4.03;;
58338;SDS011;68636;52.704;6.536;2023-08-17T05:25:25;16.77;;;4.60;;
58338;SDS011;68636;52.704;6.536;2023-08-17T05:27:51;17.30;;;5.20;;
58338;SDS011;68636;52.704;6.536;2023-08-17T05:30:17;12.70;;;4.23;;
58338;SDS011;68636;52.704;6.536;2023-08-17T05:32:43;12.13;;;3.97;;
58338;SDS011;68636;52.704;6.536;2023-08-17T05:35:09;14.63;;;5.55;;
58338;SDS011;68636;52.704;6.536;2023-08-17T05:37:36;17.17;;;4.45;;
58338;SDS011;68636;52.704;6.536;2023-08-17T05:40:02;17.77;;;3.70;;
58338;SDS011;68636;52.704;6.536;2023-08-17T05:42:29;13.25;;;3.88;;
58338;SDS011;68636;52.704;6.536;2023-08-17T05:44:55;11.15;;;3.28;;
58338;SDS011;68636;52.704;6.536;2023-08-17T05:47:21;17.58;;;4.25;;
58338;SDS011;68636;52.704;6.536;2023-08-17T05:49:47;11.70;;;3.60;;
58338;SDS011;68636;52.704;6.536;2023-08-17T05:52:12;13.75;;;3.70;;
58338;SDS011;68636;52.704;6.536;2023-08-17T05:54:38;13.93;;;3.65;;
58338;SDS011;68636;52.704;6.536;2023-08-17T05:57:04;14.03;;;3.63;;
58338;SDS011;68636;52.704;6.536;2023-08-17T05:59:30;13.18;;;3.78;;
58338;SDS011;68636;52.704;6.536;2023-08-17T06:01:56;11.38;;;3.88;;
58338;SDS011;68636;52.704;6.536;2023-08-17T06:04:22;17.27;;;9.48;;
58338;SDS011;68636;52.704;6.536;2023-08-17T06:06:48;13.32;;;2.75;;
58338;SDS011;68636;52.704;6.536;2023-08-17T06:09:13;11.05;;;2.55;;
58338;SDS011;68636;52.704;6.536;2023-08-17T06:11:39;11.30;;;2.10;;
58338;SDS011;68636;52.704;6.536;2023-08-17T06:14:05;8.85;;;2.83;;
58338;SDS011;68636;52.704;6.536;2023-08-17T06:16:31;13.10;;;2.57;;
58338;SDS011;68636;52.704;6.536;2023-08-17T06:18:57;14.77;;;3.83;;
58338;SDS011;68636;52.704;6.536;2023-08-17T06:21:23;14.32;;;2.58;;
58338;SDS011;68636;52.704;6.536;2023-08-17T06:23:49;15.15;;;2.63;;
58338;SDS011;68636;52.704;6.536;2023-08-17T06:26:14;11.43;;;2.63;;
58338;SDS011;68636;52.704;6.536;2023-08-17T06:28:40;8.98;;;2.50;;
58338;SDS011;68636;52.704;6.536;2023-08-17T06:31:06;8.75;;;2.30;;
58338;SDS011;68636;52.704;6.536;2023-08-17T06:33:32;12.05;;;2.60;;
58338;SDS011;68636;52.704;6.536;2023-08-17T06:35:57;9.77;;;2.25;;
58338;SDS011;68636;52.704;6.536;2023-08-17T06:38:23;12.47;;;4.83;;
58338;SDS011;68636;52.704;6.536;2023-08-17T06:40:49;10.45;;;2.75;;
58338;SDS011;68636;52.704;6.536;2023-08-17T06:43:14;9.55;;;2.55;;
58338;SDS011;68636;52.704;6.536;2023-08-17T06:45:40;13.70;;;2.10;;
58338;SDS011;68636;52.704;6.536;2023-08-17T06:48:06;12.68;;;2.20;;
58338;SDS011;68636;52.704;6.536;2023-08-17T06:50:31;7.17;;;2.43;;
58338;SDS011;68636;52.704;6.536;2023-08-17T06:52:57;10.98;;;2.50;;
58338;SDS011;68636;52.704;6.536;2023-08-17T06:55:23;13.48;;;2.28;;
58338;SDS011;68636;52.704;6.536;2023-08-17T06:57:48;12.02;;;2.72;;
58338;SDS011;68636;52.704;6.536;2023-08-17T07:00:17;15.45;;;2.83;;
58338;SDS011;68636;52.704;6.536;2023-08-17T07:02:47;11.25;;;2.38;;
58338;SDS011;68636;52.704;6.536;2023-08-17T07:05:16;8.48;;;2.30;;
58338;SDS011;68636;52.704;6.536;2023-08-17T07:07:43;13.98;;;3.00;;
58338;SDS011;68636;52.704;6.536;2023-08-17T07:10:09;12.00;;;2.03;;
58338;SDS011;68636;52.704;6.536;2023-08-17T07:12:39;9.93;;;1.98;;
58338;SDS011;68636;52.704;6.536;2023-08-17T07:15:05;11.80;;;2.58;;
58338;SDS011;68636;52.704;6.536;2023-08-17T07:17:31;10.07;;;2.15;;
58338;SDS011;68636;52.704;6.536;2023-08-17T07:19:59;17.42;;;2.65;;
58338;SDS011;68636;52.704;6.536;2023-08-17T07:22:24;16.08;;;2.03;;
58338;SDS011;68636;52.704;6.536;2023-08-17T07:24:50;12.90;;;2.80;;
58338;SDS011;68636;52.704;6.536;2023-08-17T07:27:16;9.93;;;2.40;;
58338;SDS011;68636;52.704;6.536;2023-08-17T07:29:42;16.25;;;2.42;;
58338;SDS011;68636;52.704;6.536;2023-08-17T07:32:07;13.57;;;2.37;;
58338;SDS011;68636;52.704;6.536;2023-08-17T07:34:35;14.85;;;2.35;;
58338;SDS011;68636;52.704;6.536;2023-08-17T07:37:01;11.00;;;2.53;;
58338;SDS011;68636;52.704;6.536;2023-08-17T07:39:29;9.50;;;2.08;;
58338;SDS011;68636;52.704;6.536;2023-08-17T07:41:54;9.50;;;2.23;;
58338;SDS011;68636;52.704;6.536;2023-08-17T07:44:20;10.43;;;2.13;;
58338;SDS011;68636;52.704;6.536;2023-08-17T07:46:46;8.43;;;2.22;;
58338;SDS011;68636;52.704;6.536;2023-08-17T07:49:11;10.23;;;2.37;;
58338;SDS011;68636;52.704;6.536;2023-08-17T07:51:37;10.05;;;2.50;;
58338;SDS011;68636;52.704;6.536;2023-08-17T07:54:03;15.95;;;2.42;;
58338;SDS011;68636;52.704;6.536;2023-08-17T07:56:29;9.65;;;2.25;;
58338;SDS011;68636;52.704;6.536;2023-08-17T07:58:55;14.25;;;2.33;;
58338;SDS011;68636;52.704;6.536;2023-08-17T08:01:21;12.43;;;2.30;;
58338;SDS011;68636;52.704;6.536;2023-08-17T08:03:46;9.83;;;2.50;;
58338;SDS011;68636;52.704;6.536;2023-08-17T08:06:12;8.80;;;2.17;;
58338;SDS011;68636;52.704;6.536;2023-08-17T08:08:38;7.45;;;2.05;;
58338;SDS011;68636;52.704;6.536;2023-08-17T08:11:07;10.20;;;1.98;;
58338;SDS011;68636;52.704;6.536;2023-08-17T08:13:32;6.50;;;1.80;;
58338;SDS011;68636;52.704;6.536;2023-08-17T08:15:58;8.23;;;2.30;;
58338;SDS011;68636;52.704;6.536;2023-08-17T08:18:24;10.80;;;2.23;;
58338;SDS011;68636;52.704;6.536;2023-08-17T08:20:50;13.20;;;2.15;;
58338;SDS011;68636;52.704;6.536;2023-08-17T08:23:16;9.90;;;2.73;;
58338;SDS011;68636;52.704;6.536;2023-08-17T08:25:43;13.55;;;2.13;;
58338;SDS011;68636;52.704;6.536;2023-08-17T08:28:08;10.03;;;2.30;;
58338;SDS011;68636;52.704;6.536;2023-08-17T08:30:34;11.37;;;2.07;;
58338;SDS011;68636;52.704;6.536;2023-08-17T08:33:00;13.87;;;2.27;;
58338;SDS011;68636;52.704;6.536;2023-08-17T08:35:26;8.38;;;2.22;;
58338;SDS011;68636;52.704;6.536;2023-08-17T08:37:53;8.65;;;1.85;;
58338;SDS011;68636;52.704;6.536;2023-08-17T08:40:21;10.00;;;2.47;;
58338;SDS011;68636;52.704;6.536;2023-08-17T08:42:56;7.15;;;2.10;;
58338;SDS011;68636;52.704;6.536;2023-08-17T08:45:22;10.82;;;2.15;;
58338;SDS011;68636;52.704;6.536;2023-08-17T08:47:48;8.73;;;2.10;;
58338;SDS011;68636;52.704;6.536;2023-08-17T08:50:18;10.43;;;1.70;;
58338;SDS011;68636;52.704;6.536;2023-08-17T08:52:53;11.48;;;2.05;;
58338;SDS011;68636;52.704;6.536;2023-08-17T08:55:36;8.10;;;1.85;;
58338;SDS011;68636;52.704;6.536;2023-08-17T08:58:04;7.95;;;1.80;;
58338;SDS011;68636;52.704;6.536;2023-08-17T09:00:31;8.55;;;2.20;;
58338;SDS011;68636;52.704;6.536;2023-08-17T09:02:58;7.63;;;1.63;;
58338;SDS011;68636;52.704;6.536;2023-08-17T09:05:26;10.13;;;1.90;;
58338;SDS011;68636;52.704;6.536;2023-08-17T09:07:52;8.07;;;2.20;;
58338;SDS011;68636;52.704;6.536;2023-08-17T09:10:19;11.68;;;2.40;;
58338;SDS011;68636;52.704;6.536;2023-08-17T09:12:45;11.33;;;2.03;;
58338;SDS011;68636;52.704;6.536;2023-08-17T09:15:12;6.50;;;2.08;;
58338;SDS011;68636;52.704;6.536;2023-08-17T09:17:38;13.27;;;2.03;;
58338;SDS011;68636;52.704;6.536;2023-08-17T09:20:04;9.63;;;2.23;;
58338;SDS011;68636;52.704;6.536;2023-08-17T09:25:07;9.73;;;3.25;;
58338;SDS011;68636;52.704;6.536;2023-08-17T09:27:38;11.93;;;2.40;;
58338;SDS011;68636;52.704;6.536;2023-08-17T09:30:09;9.90;;;2.28;;
58338;SDS011;68636;52.704;6.536;2023-08-17T09:32:35;7.95;;;2.40;;
58338;SDS011;68636;52.704;6.536;2023-08-17T09:35:05;6.75;;;2.38;;
58338;SDS011;68636;52.704;6.536;2023-08-17T09:37:32;8.65;;;2.42;;
58338;SDS011;68636;52.704;6.536;2023-08-17T09:39:58;14.30;;;2.30;;
58338;SDS011;68636;52.704;6.536;2023-08-17T09:42:25;12.32;;;2.53;;
58338;SDS011;68636;52.704;6.536;2023-08-17T09:44:52;11.63;;;2.78;;
58338;SDS011;68636;52.704;6.536;2023-08-17T09:47:19;18.70;;;2.90;;
58338;SDS011;68636;52.704;6.536;2023-08-17T09:49:48;7.95;;;2.33;;
58338;SDS011;68636;52.704;6.536;2023-08-17T09:52:16;14.52;;;2.90;;
58338;SDS011;68636;52.704;6.536;2023-08-17T09:54:43;11.07;;;2.60;;
58338;SDS011;68636;52.704;6.536;2023-08-17T09:57:10;12.75;;;2.42;;
58338;SDS011;68636;52.704;6.536;2023-08-17T10:02:03;8.53;;;2.80;;
58338;SDS011;68636;52.704;6.536;2023-08-17T10:04:30;11.07;;;3.05;;
58338;SDS011;68636;52.704;6.536;2023-08-17T10:06:59;14.25;;;3.28;;
58338;SDS011;68636;52.704;6.536;2023-08-17T10:09:29;14.25;;;3.20;;
58338;SDS011;68636;52.704;6.536;2023-08-17T10:12:00;9.88;;;2.90;;
58338;SDS011;68636;52.704;6.536;2023-08-17T10:14:33;13.13;;;3.50;;
58338;SDS011;68636;52.704;6.536;2023-08-17T10:17:09;11.70;;;2.92;;
58338;SDS011;68636;52.704;6.536;2023-08-17T10:19:44;9.77;;;3.00;;
58338;SDS011;68636;52.704;6.536;2023-08-17T10:22:26;11.68;;;2.70;;
58338;SDS011;68636;52.704;6.536;2023-08-17T10:24:58;9.60;;;2.92;;
58338;SDS011;68636;52.704;6.536;2023-08-17T10:27:26;14.45;;;3.28;;
58338;SDS011;68636;52.704;6.536;2023-08-17T10:29:52;13.77;;;3.45;;
58338;SDS011;68636;52.704;6.536;2023-08-17T10:32:20;16.65;;;3.70;;
58338;SDS011;68636;52.704;6.536;2023-08-17T10:34:48;11.65;;;3.53;;
58338;SDS011;68636;52.704;6.536;2023-08-17T10:37:17;12.05;;;3.67;;
58338;SDS011;68636;52.704;6.536;2023-08-17T10:39:47;12.50;;;3.80;;
58338;SDS011;68636;52.704;6.536;2023-08-17T10:42:13;9.70;;;3.58;;
58338;SDS011;68636;52.704;6.536;2023-08-17T10:44:43;13.85;;;4.15;;
58338;SDS011;68636;52.704;6.536;2023-08-17T10:47:20;11.90;;;3.65;;
58338;SDS011;68636;52.704;6.536;2023-08-17T10:54:58;11.95;;;4.05;;
58338;SDS011;68636;52.704;6.536;2023-08-17T10:57:39;12.27;;;3.95;;
58338;SDS011;68636;52.704;6.536;2023-08-17T11:00:19;8.98;;;4.47;;
58338;SDS011;68636;52.704;6.536;2023-08-17T11:02:52;12.57;;;4.72;;
58338;SDS011;68636;52.704;6.536;2023-08-17T11:06:13;12.57;;;4.50;;
58338;SDS011;68636;52.704;6.536;2023-08-17T11:13:35;10.07;;;4.00;;
58338;SDS011;68636;52.704;6.536;2023-08-17T11:16:06;12.75;;;4.05;;
58338;SDS011;68636;52.704;6.536;2023-08-17T11:18:34;12.65;;;4.20;;
58338;SDS011;68636;52.704;6.536;2023-08-17T11:21:04;12.60;;;4.88;;
58338;SDS011;68636;52.704;6.536;2023-08-17T11:23:31;12.43;;;4.43;;
58338;SDS011;68636;52.704;6.536;2023-08-17T11:25:57;14.10;;;5.28;;
58338;SDS011;68636;52.704;6.536;2023-08-17T11:28:23;11.17;;;4.83;;
58338;SDS011;68636;52.704;6.536;2023-08-17T11:30:56;13.50;;;4.53;;
58338;SDS011;68636;52.704;6.536;2023-08-17T11:33:23;12.52;;;4.93;;
58338;SDS011;68636;52.704;6.536;2023-08-17T11:35:50;15.10;;;4.97;;
58338;SDS011;68636;52.704;6.536;2023-08-17T11:38:16;14.87;;;4.73;;
58338;SDS011;68636;52.704;6.536;2023-08-17T11:40:42;14.37;;;4.57;;
58338;SDS011;68636;52.704;6.536;2023-08-17T11:43:08;18.80;;;5.37;;
58338;SDS011;68636;52.704;6.536;2023-08-17T11:45:33;11.13;;;5.30;;
58338;SDS011;68636;52.704;6.536;2023-08-17T11:47:59;14.87;;;5.10;;
58338;SDS011;68636;52.704;6.536;2023-08-17T11:50:25;11.05;;;5.18;;
58338;SDS011;68636;52.704;6.536;2023-08-17T11:52:51;11.43;;;4.63;;
58338;SDS011;68636;52.704;6.536;2023-08-17T11:55:17;11.30;;;5.00;;
58338;SDS011;68636;52.704;6.536;2023-08-17T11:57:45;14.80;;;4.45;;
58338;SDS011;68636;52.704;6.536;2023-08-17T12:00:16;14.67;;;5.73;;
58338;SDS011;68636;52.704;6.536;2023-08-17T12:02:46;10.02;;;4.95;;
58338;SDS011;68636;52.704;6.536;2023-08-17T12:05:13;14.73;;;5.32;;
58338;SDS011;68636;52.704;6.536;2023-08-17T12:07:38;13.43;;;5.87;;
58338;SDS011;68636;52.704;6.536;2023-08-17T12:10:04;10.57;;;5.53;;
58338;SDS011;68636;52.704;6.536;2023-08-17T12:12:30;13.18;;;6.15;;
58338;SDS011;68636;52.704;6.536;2023-08-17T12:15:01;14.60;;;5.43;;
58338;SDS011;68636;52.704;6.536;2023-08-17T12:17:29;20.10;;;8.43;;
58338;SDS011;68636;52.704;6.536;2023-08-17T12:19:55;19.73;;;9.03;;
58338;SDS011;68636;52.704;6.536;2023-08-17T12:22:23;15.32;;;6.55;;
58338;SDS011;68636;52.704;6.536;2023-08-17T12:24:50;14.07;;;7.47;;
58338;SDS011;68636;52.704;6.536;2023-08-17T12:27:17;20.08;;;9.60;;
58338;SDS011;68636;52.704;6.536;2023-08-17T12:29:50;18.88;;;8.10;;
58338;SDS011;68636;52.704;6.536;2023-08-17T12:32:17;15.02;;;6.43;;
58338;SDS011;68636;52.704;6.536;2023-08-17T12:34:43;30.77;;;16.33;;
58338;SDS011;68636;52.704;6.536;2023-08-17T12:37:10;35.35;;;15.38;;
58338;SDS011;68636;52.704;6.536;2023-08-17T12:39:36;15.25;;;9.32;;
58338;SDS011;68636;52.704;6.536;2023-08-17T12:42:03;56.00;;;32.58;;
58338;SDS011;68636;52.704;6.536;2023-08-17T12:44:29;14.52;;;7.82;;
58338;SDS011;68636;52.704;6.536;2023-08-17T12:46:55;20.73;;;13.77;;
58338;SDS011;68636;52.704;6.536;2023-08-17T12:49:20;16.83;;;9.37;;
58338;SDS011;68636;52.704;6.536;2023-08-17T12:51:47;47.38;;;24.00;;
58338;SDS011;68636;52.704;6.536;2023-08-17T12:54:12;25.37;;;10.50;;
58338;SDS011;68636;52.704;6.536;2023-08-17T12:56:38;15.87;;;7.70;;
58338;SDS011;68636;52.704;6.536;2023-08-17T12:59:04;14.70;;;7.30;;
58338;SDS011;68636;52.704;6.536;2023-08-17T13:01:29;16.10;;;7.00;;
58338;SDS011;68636;52.704;6.536;2023-08-17T13:03:55;15.53;;;6.83;;
58338;SDS011;68636;52.704;6.536;2023-08-17T13:06:21;15.60;;;6.60;;
58338;SDS011;68636;52.704;6.536;2023-08-17T13:08:47;14.90;;;6.85;;
58338;SDS011;68636;52.704;6.536;2023-08-17T13:11:13;12.37;;;5.73;;
58338;SDS011;68636;52.704;6.536;2023-08-17T13:13:38;18.27;;;6.20;;
58338;SDS011;68636;52.704;6.536;2023-08-17T13:16:05;13.35;;;5.57;;
58338;SDS011;68636;52.704;6.536;2023-08-17T13:18:31;14.93;;;7.10;;
58338;SDS011;68636;52.704;6.536;2023-08-17T13:20:57;12.20;;;6.03;;
58338;SDS011;68636;52.704;6.536;2023-08-17T13:23:23;18.53;;;6.80;;
58338;SDS011;68636;52.704;6.536;2023-08-17T13:25:49;15.20;;;6.50;;
58338;SDS011;68636;52.704;6.536;2023-08-17T13:28:14;13.80;;;6.73;;
58338;SDS011;68636;52.704;6.536;2023-08-17T13:30:40;15.07;;;6.67;;
58338;SDS011;68636;52.704;6.536;2023-08-17T13:33:06;14.60;;;6.97;;
58338;SDS011;68636;52.704;6.536;2023-08-17T13:35:32;11.43;;;6.33;;
58338;SDS011;68636;52.704;6.536;2023-08-17T13:37:58;12.35;;;6.22;;
58338;SDS011;68636;52.704;6.536;2023-08-17T13:40:24;14.67;;;7.50;;
58338;SDS011;68636;52.704;6.536;2023-08-17T13:42:50;14.73;;;6.67;;
58338;SDS011;68636;52.704;6.536;2023-08-17T13:45:16;15.00;;;6.80;;
58338;SDS011;68636;52.704;6.536;2023-08-17T13:47:42;14.87;;;6.93;;
58338;SDS011;68636;52.704;6.536;2023-08-17T13:50:08;15.03;;;6.93;;
58338;SDS011;68636;52.704;6.536;2023-08-17T13:52:34;22.30;;;6.90;;
58338;SDS011;68636;52.704;6.536;2023-08-17T13:54:59;14.50;;;6.77;;
58338;SDS011;68636;52.704;6.536;2023-08-17T13:57:25;12.83;;;6.23;;
58338;SDS011;68636;52.704;6.536;2023-08-17T13:59:54;12.33;;;7.30;;
58338;SDS011;68636;52.704;6.536;2023-08-17T14:02:20;17.50;;;7.47;;
58338;SDS011;68636;52.704;6.536;2023-08-17T14:04:45;18.67;;;6.63;;
58338;SDS011;68636;52.704;6.536;2023-08-17T14:07:11;12.83;;;6.83;;
58338;SDS011;68636;52.704;6.536;2023-08-17T14:09:37;12.53;;;6.20;;
58338;SDS011;68636;52.704;6.536;2023-08-17T14:12:03;16.70;;;7.40;;
58338;SDS011;68636;52.704;6.536;2023-08-17T14:14:30;12.13;;;6.55;;
58338;SDS011;68636;52.704;6.536;2023-08-17T14:16:56;14.52;;;6.95;;
58338;SDS011;68636;52.704;6.536;2023-08-17T14:19:22;14.30;;;7.13;;
58338;SDS011;68636;52.704;6.536;2023-08-17T14:21:48;15.73;;;7.55;;
58338;SDS011;68636;52.704;6.536;2023-08-17T14:24:14;17.57;;;7.47;;
58338;SDS011;68636;52.704;6.536;2023-08-17T14:26:39;14.83;;;8.20;;
58338;SDS011;68636;52.704;6.536;2023-08-17T14:29:05;14.93;;;7.43;;
58338;SDS011;68636;52.704;6.536;2023-08-17T14:31:31;17.00;;;7.83;;
58338;SDS011;68636;52.704;6.536;2023-08-17T14:33:57;15.13;;;7.90;;
58338;SDS011;68636;52.704;6.536;2023-08-17T14:36:22;18.17;;;7.90;;
58338;SDS011;68636;52.704;6.536;2023-08-17T14:38:48;16.97;;;8.00;;
58338;SDS011;68636;52.704;6.536;2023-08-17T14:41:14;17.37;;;8.17;;
58338;SDS011;68636;52.704;6.536;2023-08-17T14:43:39;12.67;;;7.50;;
58338;SDS011;68636;52.704;6.536;2023-08-17T14:46:05;16.43;;;7.33;;
58338;SDS011;68636;52.704;6.536;2023-08-17T14:48:31;14.52;;;7.25;;
58338;SDS011;68636;52.704;6.536;2023-08-17T14:50:57;13.50;;;7.40;;
58338;SDS011;68636;52.704;6.536;2023-08-17T14:53:23;15.73;;;7.43;;
58338;SDS011;68636;52.704;6.536;2023-08-17T14:55:48;14.00;;;7.07;;
58338;SDS011;68636;52.704;6.536;2023-08-17T14:58:14;13.13;;;6.80;;